createdAt,value
2018-09-24T00:01:13.992Z,99.90
2018-09-24T00:03:42.502Z,99.90
2018-09-24T00:06:10.928Z,99.90
2018-09-24T00:08:39.362Z,99.90
2018-09-24T00:11:07.781Z,99.90
2018-09-24T00:13:36.419Z,99.90
2018-09-24T00:16:04.930Z,99.90
2018-09-24T00:18:33.415Z,99.90
2018-09-24T00:21:01.929Z,99.90
2018-09-24T00:23:30.301Z,99.90
2018-09-24T00:25:58.688Z,99.90
2018-09-24T00:28:27.113Z,99.90
2018-09-24T00:30:55.731Z,99.90
2018-09-24T00:33:24.089Z,99.90
2018-09-24T00:35:52.657Z,99.90
2018-09-24T00:38:20.992Z,99.90
2018-09-24T00:40:49.391Z,99.90
2018-09-24T00:43:18.374Z,99.90
2018-09-24T00:45:46.805Z,99.90
2018-09-24T00:48:15.166Z,99.90
2018-09-24T00:50:43.718Z,99.90
2018-09-24T00:53:12.330Z,99.90
2018-09-24T00:55:40.860Z,99.90
2018-09-24T00:58:09.297Z,99.90
2018-09-24T01:00:37.780Z,99.90
2018-09-24T01:03:06.594Z,99.90
2018-09-24T01:05:35.014Z,99.90
2018-09-24T01:08:03.378Z,99.90
2018-09-24T01:10:31.833Z,99.90
2018-09-24T01:13:00.249Z,99.90
2018-09-24T01:15:28.826Z,99.90
2018-09-24T01:17:57.327Z,99.90
2018-09-24T01:20:25.690Z,99.90
2018-09-24T01:22:54.084Z,99.90
2018-09-24T01:25:22.699Z,99.90
2018-09-24T01:27:51.053Z,99.90
2018-09-24T01:30:19.630Z,99.90
2018-09-24T01:32:48.048Z,99.90
2018-09-24T01:35:16.604Z,99.90
2018-09-24T01:37:44.946Z,99.90
2018-09-24T01:40:13.449Z,99.90
2018-09-24T01:42:41.860Z,99.90
2018-09-24T01:45:10.294Z,99.90
2018-09-24T01:47:38.662Z,99.90
2018-09-24T01:50:07.409Z,99.90
2018-09-24T01:52:35.833Z,99.90
2018-09-24T01:55:04.163Z,99.90
2018-09-24T01:57:32.534Z,99.90
2018-09-24T02:00:00.977Z,99.90
2018-09-24T02:02:29.392Z,99.90
2018-09-24T02:04:57.932Z,99.90
2018-09-24T02:07:26.268Z,99.90
2018-09-24T02:09:54.849Z,99.90
2018-09-24T02:12:23.248Z,99.90
2018-09-24T02:14:51.706Z,99.90
2018-09-24T02:17:22.374Z,99.90
2018-09-24T02:19:51.633Z,99.90
2018-09-24T02:22:24.516Z,99.90
2018-09-24T02:24:53.348Z,99.90
2018-09-24T02:27:22.913Z,99.90
2018-09-24T02:29:51.297Z,99.90
2018-09-24T02:32:20.266Z,99.90
2018-09-24T02:34:50.217Z,99.90
2018-09-24T02:37:18.862Z,99.90
2018-09-24T02:39:47.589Z,99.90
2018-09-24T02:42:16.312Z,99.90
2018-09-24T02:44:44.817Z,99.90
2018-09-24T02:47:13.776Z,99.90
2018-09-24T02:49:42.421Z,99.90
2018-09-24T02:52:11.107Z,99.90
2018-09-24T02:54:39.691Z,99.90
2018-09-24T02:57:08.045Z,99.90
2018-09-24T02:59:36.691Z,99.90
2018-09-24T03:02:05.196Z,99.90
2018-09-24T03:04:33.819Z,99.90
2018-09-24T03:07:02.303Z,99.90
2018-09-24T03:09:30.790Z,99.90
2018-09-24T03:11:59.570Z,99.90
2018-09-24T03:14:28.608Z,99.90
2018-09-24T03:16:57.020Z,99.90
2018-09-24T03:19:25.681Z,99.90
2018-09-24T03:21:54.620Z,99.90
2018-09-24T03:24:23.359Z,99.90
2018-09-24T03:26:51.791Z,99.90
2018-09-24T03:29:26.065Z,99.90
2018-09-24T03:31:54.971Z,99.90
2018-09-24T03:34:23.423Z,99.90
2018-09-24T03:36:52.243Z,99.90
2018-09-24T03:39:21.035Z,99.90
2018-09-24T03:41:49.826Z,99.90
2018-09-24T03:44:18.689Z,99.90
2018-09-24T03:46:47.110Z,99.90
2018-09-24T03:49:15.878Z,99.90
2018-09-24T03:51:44.727Z,99.90
2018-09-24T03:54:13.578Z,99.90
2018-09-24T03:56:42.250Z,99.90
2018-09-24T03:59:11.013Z,99.90
2018-09-24T04:01:39.624Z,99.90
2018-09-24T04:04:12.266Z,99.90
2018-09-24T04:06:44.891Z,99.90
2018-09-24T04:09:17.867Z,99.90
2018-09-24T04:11:50.713Z,99.90
2018-09-24T04:14:23.500Z,99.90
2018-09-24T04:16:56.415Z,99.90
2018-09-24T04:19:29.318Z,99.90
2018-09-24T04:22:02.206Z,99.90
2018-09-24T04:24:35.212Z,99.90
2018-09-24T04:27:08.005Z,99.90
2018-09-24T04:29:40.937Z,99.90
2018-09-24T04:32:13.675Z,99.90
2018-09-24T04:34:46.623Z,99.90
2018-09-24T04:37:19.304Z,99.90
2018-09-24T04:39:52.090Z,99.90
2018-09-24T04:42:24.815Z,99.90
2018-09-24T04:44:57.683Z,99.90
2018-09-24T04:47:30.457Z,99.90
2018-09-24T04:50:03.355Z,99.90
2018-09-24T04:52:36.102Z,99.90
2018-09-24T04:55:09.475Z,99.90
2018-09-24T04:57:42.257Z,99.90
2018-09-24T05:00:15.108Z,99.90
2018-09-24T05:02:47.837Z,99.90
2018-09-24T05:05:20.528Z,99.90
2018-09-24T05:07:53.071Z,99.90
2018-09-24T05:10:25.697Z,99.90
2018-09-24T05:12:58.230Z,99.90
2018-09-24T05:15:30.810Z,99.90
2018-09-24T05:18:03.355Z,99.90
2018-09-24T05:20:38.930Z,99.90
2018-09-24T05:23:11.482Z,99.90
2018-09-24T05:25:43.972Z,99.90
2018-09-24T05:28:16.523Z,99.90
2018-09-24T05:30:49.218Z,99.90
2018-09-24T05:33:21.735Z,99.90
2018-09-24T05:35:54.275Z,99.90
2018-09-24T05:38:26.841Z,99.90
2018-09-24T05:40:59.336Z,99.90
2018-09-24T05:43:31.945Z,99.90
2018-09-24T05:46:04.440Z,99.90
2018-09-24T05:48:37.718Z,99.90
2018-09-24T05:51:10.643Z,99.90
2018-09-24T05:53:43.327Z,99.90
2018-09-24T05:56:15.859Z,99.90
2018-09-24T05:58:48.410Z,99.90
2018-09-24T06:01:20.969Z,99.90
2018-09-24T06:03:53.516Z,99.50
2018-09-24T06:06:26.248Z,98.60
2018-09-24T06:08:58.901Z,97.50
2018-09-24T06:11:31.369Z,95.70
2018-09-24T06:14:03.937Z,94.50
2018-09-24T06:16:36.480Z,93.00
2018-09-24T06:19:09.353Z,91.70
2018-09-24T06:21:41.801Z,90.20
2018-09-24T06:24:14.299Z,87.20
2018-09-24T06:26:47.253Z,82.60
2018-09-24T06:29:19.742Z,77.90
2018-09-24T06:31:52.299Z,79.40
2018-09-24T06:34:24.834Z,76.80
2018-09-24T06:36:57.292Z,75.80
2018-09-24T06:39:29.789Z,74.60
2018-09-24T06:42:02.306Z,72.90
2018-09-24T06:44:34.823Z,74.00
2018-09-24T06:47:07.349Z,75.60
2018-09-24T06:49:39.992Z,73.10
2018-09-24T06:52:12.557Z,69.80
2018-09-24T06:54:45.106Z,67.70
2018-09-24T06:57:17.635Z,66.90
2018-09-24T06:59:50.146Z,58.80
2018-09-24T07:02:22.648Z,52.40
2018-09-24T07:04:55.152Z,48.80
2018-09-24T07:07:27.793Z,42.80
2018-09-24T07:10:00.445Z,43.00
2018-09-24T07:12:33.015Z,43.10
2018-09-24T07:15:05.561Z,45.80
2018-09-24T07:17:38.125Z,41.90
2018-09-24T07:20:11.640Z,41.70
2018-09-24T07:22:44.490Z,38.40
2018-09-24T07:25:16.979Z,32.70
2018-09-24T07:27:49.562Z,29.70
2018-09-24T07:30:22.142Z,31.50
2018-09-24T07:32:54.693Z,31.20
2018-09-24T07:35:27.467Z,29.40
2018-09-24T07:38:00.041Z,32.80
2018-09-24T07:40:32.543Z,30.50
2018-09-24T07:43:05.201Z,27.60
2018-09-24T07:45:37.686Z,29.80
2018-09-24T07:48:10.277Z,28.90
2018-09-24T07:50:42.923Z,29.10
2018-09-24T07:53:15.451Z,26.00
2018-09-24T07:55:47.942Z,25.40
2018-09-24T07:58:20.513Z,27.20
2018-09-24T08:00:53.227Z,23.00
2018-09-24T08:03:25.825Z,21.80
2018-09-24T08:05:58.346Z,21.70
2018-09-24T08:08:30.920Z,21.20
2018-09-24T08:11:03.528Z,20.20
2018-09-24T08:13:36.088Z,20.20
2018-09-24T08:16:08.693Z,20.40
2018-09-24T08:18:41.251Z,18.50
2018-09-24T08:21:13.705Z,18.30
2018-09-24T08:23:46.260Z,18.20
2018-09-24T08:26:18.830Z,16.50
2018-09-24T08:28:51.641Z,16.60
2018-09-24T08:31:24.151Z,15.90
2018-09-24T08:33:56.749Z,15.20
2018-09-24T08:36:29.281Z,14.10
2018-09-24T08:39:01.881Z,12.70
2018-09-24T08:41:34.429Z,11.50
2018-09-24T08:44:07.059Z,10.40
2018-09-24T08:46:39.578Z,9.60
2018-09-24T08:49:12.592Z,12.00
2018-09-24T08:51:45.287Z,11.70
2018-09-24T08:54:18.282Z,11.70
2018-09-24T08:56:50.871Z,11.00
2018-09-24T08:59:23.296Z,11.60
2018-09-24T09:01:56.550Z,11.90
2018-09-24T09:04:29.070Z,8.50
2018-09-24T09:07:01.775Z,8.00
2018-09-24T09:09:34.294Z,7.60
2018-09-24T09:12:06.892Z,7.30
2018-09-24T09:14:39.978Z,6.90
2018-09-24T09:17:12.592Z,8.80
2018-09-24T09:19:45.145Z,7.50
2018-09-24T09:22:17.693Z,6.60
2018-09-24T09:24:50.362Z,7.90
2018-09-24T09:27:22.934Z,7.90
2018-09-24T09:29:55.515Z,8.00
2018-09-24T09:32:28.416Z,6.00
2018-09-24T09:35:00.948Z,5.80
2018-09-24T09:37:34.192Z,5.70
2018-09-24T09:40:07.165Z,5.50
2018-09-24T09:42:39.838Z,7.20
2018-09-24T09:45:12.385Z,8.60
2018-09-24T09:47:45.651Z,9.90
2018-09-24T09:50:19.444Z,10.70
2018-09-24T09:52:52.076Z,8.10
2018-09-24T09:55:24.686Z,7.70
2018-09-24T09:57:57.317Z,8.90
2018-09-24T10:00:30.165Z,8.90
2018-09-24T10:03:02.645Z,8.90
2018-09-24T10:05:35.248Z,11.50
2018-09-24T10:08:07.916Z,12.90
2018-09-24T10:10:40.537Z,13.10
2018-09-24T10:13:13.115Z,13.90
2018-09-24T10:15:45.746Z,12.50
2018-09-24T10:18:18.369Z,14.80
2018-09-24T10:20:51.028Z,14.60
2018-09-24T10:23:23.942Z,14.70
2018-09-24T10:25:56.526Z,15.30
2018-09-24T10:28:29.144Z,13.50
2018-09-24T10:31:01.861Z,14.00
2018-09-24T10:33:34.536Z,15.50
2018-09-24T10:36:07.053Z,15.40
2018-09-24T10:38:39.660Z,15.70
2018-09-24T10:41:12.291Z,16.00
2018-09-24T10:43:44.989Z,15.80
2018-09-24T10:46:17.722Z,16.40
2018-09-24T10:48:50.342Z,17.90
2018-09-24T10:51:23.241Z,17.60
2018-09-24T10:53:55.864Z,15.50
2018-09-24T10:56:28.558Z,10.00
2018-09-24T10:59:01.122Z,8.40
2018-09-24T11:01:33.801Z,9.20
2018-09-24T11:04:06.412Z,7.70
2018-09-24T11:06:39.561Z,8.90
2018-09-24T11:09:12.902Z,8.20
2018-09-24T11:11:45.637Z,8.10
2018-09-24T11:14:18.317Z,7.20
2018-09-24T11:16:51.508Z,7.30
2018-09-24T11:19:23.988Z,7.40
2018-09-24T11:21:56.625Z,6.20
2018-09-24T11:24:29.534Z,7.60
2018-09-24T11:27:02.165Z,7.50
2018-09-24T11:29:34.765Z,6.80
2018-09-24T11:32:07.440Z,7.00
2018-09-24T11:34:40.063Z,6.90
2018-09-24T11:37:12.651Z,8.30
2018-09-24T11:39:45.254Z,6.50
2018-09-24T11:42:17.783Z,4.70
2018-09-24T11:44:50.560Z,3.50
2018-09-24T11:47:23.214Z,3.70
2018-09-24T11:49:56.488Z,3.80
2018-09-24T11:52:29.086Z,3.90
2018-09-24T11:55:01.701Z,2.90
2018-09-24T11:57:34.300Z,3.00
2018-09-24T12:00:06.858Z,3.30
2018-09-24T12:02:39.473Z,4.00
2018-09-24T12:05:12.373Z,9.10
2018-09-24T12:07:45.018Z,14.20
2018-09-24T12:10:17.587Z,16.00
2018-09-24T12:12:50.194Z,15.90
2018-09-24T12:15:22.742Z,12.50
2018-09-24T12:17:55.307Z,13.10
2018-09-24T12:20:28.575Z,13.70
2018-09-24T12:23:01.174Z,16.10
2018-09-24T12:25:33.775Z,16.00
2018-09-24T12:28:06.241Z,16.50
2018-09-24T12:30:38.910Z,17.20
2018-09-24T12:33:11.445Z,18.80
2018-09-24T12:35:44.228Z,20.10
2018-09-24T12:38:16.849Z,18.30
2018-09-24T12:40:49.454Z,18.80
2018-09-24T12:43:22.142Z,18.40
2018-09-24T12:45:54.683Z,17.90
2018-09-24T12:48:27.978Z,17.70
2018-09-24T12:51:00.570Z,17.70
2018-09-24T12:53:33.169Z,17.80
2018-09-24T12:56:05.676Z,18.80
2018-09-24T12:58:38.378Z,17.60
2018-09-24T13:01:11.003Z,16.90
2018-09-24T13:03:43.687Z,14.60
2018-09-24T13:06:16.320Z,12.70
2018-09-24T13:08:49.102Z,9.70
2018-09-24T13:11:21.625Z,8.40
2018-09-24T13:13:54.200Z,7.30
2018-09-24T13:16:26.751Z,7.30
2018-09-24T13:19:08.183Z,7.20
2018-09-24T13:21:40.841Z,5.10
2018-09-24T13:24:13.414Z,4.80
2018-09-24T13:26:46.035Z,4.90
2018-09-24T13:29:18.630Z,5.30
2018-09-24T13:31:51.201Z,4.70
2018-09-24T13:34:23.751Z,4.90
2018-09-24T13:36:56.343Z,4.90
2018-09-24T13:39:28.930Z,5.70
2018-09-24T13:42:01.569Z,7.10
2018-09-24T13:44:34.100Z,8.10
2018-09-24T13:47:06.571Z,9.60
2018-09-24T13:49:39.076Z,11.20
2018-09-24T13:52:11.643Z,9.70
2018-09-24T13:54:44.244Z,9.40
2018-09-24T13:57:16.786Z,8.40
2018-09-24T13:59:49.339Z,7.90
2018-09-24T14:02:21.945Z,8.30
2018-09-24T14:04:54.826Z,8.60
2018-09-24T14:07:29.129Z,9.00
2018-09-24T14:10:01.694Z,9.00
2018-09-24T14:12:34.374Z,8.90
2018-09-24T14:15:06.891Z,11.00
2018-09-24T14:17:39.544Z,11.70
2018-09-24T14:20:12.090Z,12.30
2018-09-24T14:22:44.831Z,12.40
2018-09-24T14:25:18.047Z,13.00
2018-09-24T14:27:50.988Z,13.90
2018-09-24T14:30:23.869Z,15.00
2018-09-24T14:32:56.603Z,16.10
2018-09-24T14:35:29.184Z,15.70
2018-09-24T14:38:01.902Z,15.40
2018-09-24T14:40:34.561Z,14.30
2018-09-24T14:43:07.109Z,13.70
2018-09-24T14:45:39.739Z,13.20
2018-09-24T14:48:12.913Z,13.00
2018-09-24T14:50:45.717Z,12.80
2018-09-24T14:53:18.329Z,12.70
2018-09-24T14:55:51.594Z,12.90
2018-09-24T14:58:24.246Z,14.10
2018-09-24T15:00:56.960Z,15.10
2018-09-24T15:03:29.507Z,15.80
2018-09-24T15:06:02.811Z,28.00
2018-09-24T15:08:35.356Z,31.50
2018-09-24T15:11:07.913Z,24.50
2018-09-24T15:13:40.544Z,25.50
2018-09-24T15:16:13.084Z,26.90
2018-09-24T15:18:45.737Z,28.70
2018-09-24T15:21:18.220Z,28.90
2018-09-24T15:23:50.859Z,28.00
2018-09-24T15:26:23.477Z,23.80
2018-09-24T15:28:56.048Z,24.10
2018-09-24T15:31:29.493Z,24.00
2018-09-24T15:34:02.173Z,23.60
2018-09-24T15:36:34.646Z,21.10
2018-09-24T15:39:07.324Z,19.90
2018-09-24T15:41:40.365Z,19.20
2018-09-24T15:44:12.990Z,20.50
2018-09-24T15:46:45.571Z,19.20
2018-09-24T15:49:21.766Z,18.40
2018-09-24T15:51:54.796Z,17.60
2018-09-24T15:54:27.376Z,15.90
2018-09-24T15:56:59.972Z,17.00
2018-09-24T15:59:32.560Z,15.60
2018-09-24T16:02:05.035Z,14.30
2018-09-24T16:04:37.598Z,14.30
2018-09-24T16:07:10.062Z,15.00
2018-09-24T16:09:42.747Z,15.10
2018-09-24T16:12:15.468Z,16.30
2018-09-24T16:14:48.043Z,16.70
2018-09-24T16:17:20.694Z,17.50
2018-09-24T16:19:53.214Z,17.90
2018-09-24T16:22:25.772Z,17.80
2018-09-24T16:24:58.331Z,17.90
2018-09-24T16:27:30.788Z,14.80
2018-09-24T16:30:03.427Z,14.50
2018-09-24T16:32:35.980Z,14.70
2018-09-24T16:35:08.483Z,14.00
2018-09-24T16:37:40.982Z,14.50
2018-09-24T16:40:13.718Z,15.00
2018-09-24T16:42:46.248Z,15.00
2018-09-24T16:45:18.820Z,15.90
2018-09-24T16:47:51.465Z,15.60
2018-09-24T16:50:23.971Z,16.50
2018-09-24T16:52:56.822Z,17.10
2018-09-24T16:55:29.575Z,18.00
2018-09-24T16:58:02.238Z,18.00
2018-09-24T17:00:34.702Z,18.30
2018-09-24T17:03:07.369Z,19.00
2018-09-24T17:05:39.975Z,18.90
2018-09-24T17:08:12.489Z,19.70
2018-09-24T17:10:44.993Z,20.60
2018-09-24T17:13:17.568Z,21.00
2018-09-24T17:15:50.195Z,21.80
2018-09-24T17:18:22.749Z,22.40
2018-09-24T17:20:55.308Z,22.60
2018-09-24T17:23:28.095Z,23.20
2018-09-24T17:26:00.707Z,24.30
2018-09-24T17:28:33.355Z,25.30
2018-09-24T17:31:11.269Z,26.30
2018-09-24T17:33:48.263Z,26.10
2018-09-24T17:36:23.129Z,26.80
2018-09-24T17:38:56.234Z,27.90
2018-09-24T17:41:29.625Z,28.40
2018-09-24T17:44:03.084Z,28.60
2018-09-24T17:46:35.760Z,29.60
2018-09-24T17:49:08.843Z,30.20
2018-09-24T17:51:41.612Z,30.40
2018-09-24T17:54:14.578Z,30.80
2018-09-24T17:56:47.515Z,31.00
2018-09-24T17:59:20.467Z,30.90
2018-09-24T18:01:53.186Z,31.60
2018-09-24T18:04:26.068Z,31.90
2018-09-24T18:06:59.059Z,33.40
2018-09-24T18:09:31.529Z,34.10
2018-09-24T18:12:04.298Z,35.80
2018-09-24T18:14:36.840Z,35.80
2018-09-24T18:17:09.556Z,34.60
2018-09-24T18:19:42.236Z,33.10
2018-09-24T18:22:14.817Z,32.10
2018-09-24T18:24:48.110Z,32.50
2018-09-24T18:27:21.832Z,33.20
2018-09-24T18:29:54.508Z,33.00
2018-09-24T18:32:27.079Z,33.10
2018-09-24T18:34:59.648Z,35.90
2018-09-24T18:37:32.964Z,42.50
2018-09-24T18:40:06.078Z,51.00
2018-09-24T18:42:38.832Z,61.50
2018-09-24T18:45:12.274Z,66.40
2018-09-24T18:47:45.000Z,67.20
2018-09-24T18:50:20.235Z,66.40
2018-09-24T18:52:53.644Z,66.30
2018-09-24T18:55:29.370Z,66.30
2018-09-24T18:58:02.512Z,65.30
2018-09-24T19:00:35.549Z,66.20
2018-09-24T19:03:08.624Z,67.50
2018-09-24T19:05:41.761Z,68.90
2018-09-24T19:08:14.869Z,70.80
2018-09-24T19:10:47.769Z,72.50
2018-09-24T19:13:22.058Z,74.10
2018-09-24T19:15:55.432Z,75.40
2018-09-24T19:18:28.145Z,76.30
2018-09-24T19:21:00.911Z,77.90
2018-09-24T19:23:33.704Z,81.40
2018-09-24T19:26:06.324Z,83.90
2018-09-24T19:28:39.129Z,86.90
2018-09-24T19:31:12.163Z,89.20
2018-09-24T19:33:44.761Z,90.30
2018-09-24T19:36:17.381Z,91.40
2018-09-24T19:38:50.042Z,92.20
2018-09-24T19:41:22.975Z,92.90
2018-09-24T19:43:55.658Z,93.70
2018-09-24T19:46:28.805Z,94.60
2018-09-24T19:49:01.434Z,95.20
2018-09-24T19:51:34.093Z,95.20
2018-09-24T19:54:07.414Z,95.60
2018-09-24T19:56:40.565Z,95.70
2018-09-24T19:59:13.408Z,95.90
2018-09-24T20:01:46.536Z,96.10
2018-09-24T20:04:19.225Z,96.20
2018-09-24T20:06:52.881Z,96.40
2018-09-24T20:09:26.595Z,96.90
2018-09-24T20:11:59.549Z,97.10
2018-09-24T20:14:32.635Z,97.30
2018-09-24T20:17:05.343Z,97.60
2018-09-24T20:19:38.849Z,98.00
2018-09-24T20:22:12.866Z,98.00
2018-09-24T20:24:46.253Z,98.10
2018-09-24T20:27:18.957Z,98.30
2018-09-24T20:29:51.735Z,98.60
2018-09-24T20:32:28.295Z,98.70
2018-09-24T20:35:01.229Z,98.90
2018-09-24T20:37:34.270Z,99.00
2018-09-24T20:40:06.832Z,99.30
2018-09-24T20:42:39.419Z,99.80
2018-09-24T20:45:12.731Z,99.90
2018-09-24T20:47:45.370Z,99.90
2018-09-24T20:50:17.904Z,99.90
2018-09-24T20:52:50.870Z,99.90
2018-09-24T20:55:23.525Z,99.90
2018-09-24T20:57:56.114Z,99.90
2018-09-24T21:00:28.646Z,99.90
2018-09-24T21:03:01.264Z,99.90
2018-09-24T21:05:33.796Z,99.90
2018-09-24T21:08:06.356Z,99.90
2018-09-24T21:10:38.997Z,99.90
2018-09-24T21:13:11.573Z,99.90
2018-09-24T21:15:44.488Z,99.90
2018-09-24T21:18:17.104Z,99.90
2018-09-24T21:20:49.517Z,99.90
2018-09-24T21:23:22.123Z,99.90
2018-09-24T21:25:54.646Z,99.90
2018-09-24T21:28:27.384Z,99.90
2018-09-24T21:31:00.414Z,99.90
2018-09-24T21:33:33.096Z,99.90
2018-09-24T21:36:05.730Z,99.90
2018-09-24T21:38:38.195Z,99.90
2018-09-24T21:41:10.855Z,99.90
2018-09-24T21:43:43.437Z,99.90
2018-09-24T21:46:16.235Z,99.90
2018-09-24T21:48:48.624Z,99.90
2018-09-24T21:51:21.166Z,99.90
2018-09-24T21:53:53.760Z,99.90
2018-09-24T21:56:26.312Z,99.90
2018-09-24T21:58:58.894Z,99.90
2018-09-24T22:01:34.638Z,99.90
2018-09-24T22:04:07.266Z,99.90
2018-09-24T22:06:39.755Z,99.90
2018-09-24T22:09:12.994Z,99.90
2018-09-24T22:11:45.954Z,99.90
2018-09-24T22:14:18.546Z,99.90
2018-09-24T22:16:51.130Z,99.90
2018-09-24T22:19:23.703Z,99.90
2018-09-24T22:21:56.294Z,99.90
2018-09-24T22:24:28.926Z,99.90
2018-09-24T22:27:01.450Z,99.90
2018-09-24T22:29:33.952Z,99.90
2018-09-24T22:32:06.722Z,99.90
2018-09-24T22:34:39.288Z,99.90
2018-09-24T22:37:11.783Z,99.90
2018-09-24T22:39:44.377Z,99.90
2018-09-24T22:42:16.902Z,99.90
2018-09-24T22:44:49.482Z,99.90
2018-09-24T22:47:22.004Z,99.90
2018-09-24T22:49:54.557Z,99.90
2018-09-24T22:52:27.128Z,99.90
2018-09-24T22:55:00.052Z,99.90
2018-09-24T22:57:32.540Z,99.90
2018-09-24T23:00:05.123Z,99.90
2018-09-24T23:02:38.421Z,99.90
2018-09-24T23:05:11.094Z,99.90
2018-09-24T23:07:43.698Z,99.90
2018-09-24T23:10:16.411Z,99.90
2018-09-24T23:12:48.960Z,99.90
2018-09-24T23:15:21.518Z,99.90
2018-09-24T23:17:54.102Z,99.90
2018-09-24T23:20:26.804Z,99.90
2018-09-24T23:22:59.376Z,99.90
2018-09-24T23:25:31.906Z,99.90
2018-09-24T23:28:04.525Z,99.90
2018-09-24T23:30:37.169Z,99.90
2018-09-24T23:33:09.761Z,99.90
2018-09-24T23:35:42.284Z,99.90
2018-09-24T23:38:14.874Z,99.90
2018-09-24T23:40:47.437Z,99.90
2018-09-24T23:43:19.927Z,99.90
2018-09-24T23:45:52.572Z,99.90
2018-09-24T23:48:25.134Z,99.90
2018-09-24T23:50:57.766Z,99.90
2018-09-24T23:53:30.313Z,99.90
2018-09-24T23:56:02.998Z,99.90
2018-09-24T23:58:35.555Z,99.90
